createdAt,value
2017-02-20T00:00:00.978Z,77.98
2017-02-20T00:00:27.376Z,78.04
2017-02-20T00:00:49.072Z,78.02
2017-02-20T00:01:10.767Z,77.95
2017-02-20T00:01:32.466Z,77.92
2017-02-20T00:01:54.169Z,77.96
2017-02-20T00:02:15.868Z,77.88
2017-02-20T00:02:37.574Z,77.89
2017-02-20T00:02:59.272Z,77.76
2017-02-20T00:03:20.973Z,77.88
2017-02-20T00:03:47.453Z,77.99
2017-02-20T00:04:09.145Z,78.08
2017-02-20T00:04:30.847Z,78.05
2017-02-20T00:04:52.546Z,78.08
2017-02-20T00:05:14.246Z,78.06
2017-02-20T00:05:35.954Z,78.05
2017-02-20T00:05:57.657Z,78.06
2017-02-20T00:06:19.353Z,78.06
2017-02-20T00:06:41.058Z,78.07
2017-02-20T00:07:07.529Z,78.12
2017-02-20T00:07:29.222Z,78.10
2017-02-20T00:07:50.930Z,78.00
2017-02-20T00:08:12.628Z,78.07
2017-02-20T00:08:34.322Z,78.10
2017-02-20T00:08:56.052Z,77.94
2017-02-20T00:09:17.753Z,77.93
2017-02-20T00:09:39.451Z,78.04
2017-02-20T00:10:01.155Z,77.96
2017-02-20T00:10:22.856Z,77.93
2017-02-20T00:10:44.548Z,78.02
2017-02-20T00:11:06.252Z,77.94
2017-02-20T00:11:27.956Z,78.06
2017-02-20T00:11:49.651Z,78.07
2017-02-20T00:12:11.349Z,78.07
2017-02-20T00:12:33.043Z,78.13
2017-02-20T00:12:54.746Z,78.13
2017-02-20T00:13:16.437Z,78.06
2017-02-20T00:14:04.629Z,78.08
2017-02-20T00:14:26.327Z,78.15
2017-02-20T00:14:48.033Z,78.25
2017-02-20T00:15:09.724Z,78.03
2017-02-20T00:15:31.410Z,78.10
2017-02-20T00:15:53.109Z,78.13
2017-02-20T00:16:14.807Z,78.15
2017-02-20T00:16:36.502Z,78.16
2017-02-20T00:16:58.199Z,78.11
2017-02-20T00:17:19.906Z,78.16
2017-02-20T00:17:41.603Z,78.07
2017-02-20T00:18:03.302Z,78.17
2017-02-20T00:19:30.844Z,78.06
2017-02-20T00:19:52.533Z,77.96
2017-02-20T00:20:14.238Z,78.22
2017-02-20T00:20:35.978Z,77.91
2017-02-20T00:20:57.671Z,78.03
2017-02-20T00:21:19.362Z,78.08
2017-02-20T00:21:41.064Z,77.95
2017-02-20T00:22:02.765Z,77.93
2017-02-20T00:22:24.458Z,78.06
2017-02-20T00:22:46.160Z,77.97
2017-02-20T00:23:07.860Z,78.03
2017-02-20T00:23:29.552Z,77.99
2017-02-20T00:23:51.274Z,77.85
2017-02-20T00:24:12.954Z,78.03
2017-02-20T00:24:34.679Z,77.98
2017-02-20T00:24:56.385Z,77.96
2017-02-20T00:25:18.093Z,77.83
2017-02-20T00:25:39.781Z,77.84
2017-02-20T00:26:01.480Z,77.77
2017-02-20T00:26:23.190Z,77.82
2017-02-20T00:26:44.885Z,77.88
2017-02-20T00:27:06.585Z,77.84
2017-02-20T00:27:33.056Z,78.04
2017-02-20T00:27:54.748Z,77.82
2017-02-20T00:28:16.450Z,77.84
2017-02-20T00:28:42.930Z,77.85
2017-02-20T00:29:04.624Z,77.82
2017-02-20T00:29:26.323Z,77.83
2017-02-20T00:29:48.050Z,78.04
2017-02-20T00:30:09.740Z,77.99
2017-02-20T00:30:31.440Z,78.04
2017-02-20T00:31:02.697Z,77.83
2017-02-20T00:31:24.390Z,77.85
2017-02-20T00:31:46.090Z,77.99
2017-02-20T00:32:07.789Z,78.00
2017-02-20T00:32:29.480Z,77.99
2017-02-20T00:32:55.961Z,77.95
2017-02-20T00:33:17.653Z,77.86
2017-02-20T00:33:39.357Z,77.98
2017-02-20T00:34:01.062Z,77.77
2017-02-20T00:34:22.751Z,78.01
2017-02-20T00:34:44.444Z,77.91
2017-02-20T00:35:06.180Z,78.00
2017-02-20T00:35:27.874Z,78.04
2017-02-20T00:35:49.569Z,77.91
2017-02-20T00:36:16.045Z,78.04
2017-02-20T00:36:37.735Z,78.12
2017-02-20T00:36:59.432Z,78.26
2017-02-20T00:37:25.906Z,78.18
2017-02-20T00:37:47.596Z,77.99
2017-02-20T00:38:09.295Z,78.05
2017-02-20T00:38:31.000Z,78.21
2017-02-20T00:38:52.696Z,78.25
2017-02-20T00:39:14.399Z,78.23
2017-02-20T00:39:45.656Z,78.29
2017-02-20T00:40:07.370Z,78.06
2017-02-20T00:40:29.072Z,78.12
2017-02-20T00:40:50.782Z,78.15
2017-02-20T00:41:12.480Z,78.29
2017-02-20T00:41:34.178Z,78.19
2017-02-20T00:41:55.876Z,78.22
2017-02-20T00:42:17.574Z,78.17
2017-02-20T00:42:44.055Z,78.21
2017-02-20T00:43:05.750Z,78.26
2017-02-20T00:43:37.010Z,78.30
2017-02-20T00:43:58.703Z,78.28
2017-02-20T00:44:20.406Z,78.31
2017-02-20T00:44:51.659Z,78.23
2017-02-20T00:45:13.381Z,78.24
2017-02-20T00:45:39.858Z,78.35
2017-02-20T00:46:01.550Z,78.38
2017-02-20T00:46:32.815Z,78.40
2017-02-20T00:46:54.507Z,78.43
2017-02-20T00:47:16.211Z,78.46
2017-02-20T00:47:37.923Z,78.55
2017-02-20T00:47:59.621Z,78.50
2017-02-20T00:48:21.327Z,78.55
2017-02-20T00:48:43.023Z,78.57
2017-02-20T00:49:04.745Z,78.58
2017-02-20T00:49:26.413Z,78.71
2017-02-20T00:49:48.127Z,78.54
2017-02-20T00:50:09.819Z,78.52
2017-02-20T00:50:36.304Z,78.59
2017-02-20T00:50:57.995Z,78.45
2017-02-20T00:51:19.698Z,78.53
2017-02-20T00:51:41.394Z,78.55
2017-02-20T00:52:03.105Z,78.46
2017-02-20T00:52:24.799Z,78.50
2017-02-20T00:52:46.505Z,78.50
2017-02-20T00:53:08.205Z,78.55
2017-02-20T00:53:29.900Z,78.54
2017-02-20T00:53:51.593Z,78.56
2017-02-20T00:54:13.298Z,78.65
2017-02-20T00:54:34.991Z,78.57
2017-02-20T00:54:56.684Z,78.48
2017-02-20T00:55:18.384Z,78.69
2017-02-20T00:55:40.076Z,78.61
2017-02-20T00:56:01.778Z,78.65
2017-02-20T00:56:23.482Z,78.80
2017-02-20T00:56:45.175Z,78.71
2017-02-20T00:57:06.907Z,78.70
2017-02-20T00:57:28.697Z,78.72
2017-02-20T00:57:50.401Z,78.72
2017-02-20T00:58:12.086Z,78.65
2017-02-20T00:58:33.806Z,78.75
2017-02-20T00:58:55.508Z,78.75
2017-02-20T00:59:17.200Z,78.78
2017-02-20T00:59:38.901Z,78.65
2017-02-20T01:00:05.371Z,78.78
2017-02-20T01:00:27.064Z,78.68
2017-02-20T01:00:48.755Z,78.74
2017-02-20T01:01:10.453Z,78.60
2017-02-20T01:01:32.146Z,78.89
2017-02-20T01:01:53.834Z,78.72
2017-02-20T01:02:15.565Z,78.71
2017-02-20T01:02:37.256Z,78.76
2017-02-20T01:02:58.947Z,78.72
2017-02-20T01:03:20.645Z,78.71
2017-02-20T01:03:42.344Z,78.71
2017-02-20T01:04:04.033Z,78.79
2017-02-20T01:04:30.508Z,78.95
2017-02-20T01:04:52.203Z,78.80
2017-02-20T01:05:13.896Z,78.84
2017-02-20T01:05:35.595Z,78.86
2017-02-20T01:05:57.288Z,78.97
2017-02-20T01:06:18.987Z,78.79
2017-02-20T01:06:40.691Z,78.79
2017-02-20T01:07:02.379Z,79.02
2017-02-20T01:07:24.098Z,78.99
2017-02-20T01:07:45.793Z,79.02
2017-02-20T01:08:07.488Z,78.98
2017-02-20T01:08:29.190Z,78.92
2017-02-20T01:08:50.894Z,78.91
2017-02-20T01:09:12.591Z,78.85
2017-02-20T01:09:34.291Z,78.81
2017-02-20T01:09:55.983Z,78.92
2017-02-20T01:10:17.682Z,78.88
2017-02-20T01:10:39.383Z,79.02
2017-02-20T01:11:01.075Z,79.03
2017-02-20T01:11:27.558Z,79.08
2017-02-20T01:11:49.251Z,79.03
2017-02-20T01:12:10.951Z,79.10
2017-02-20T01:12:32.683Z,79.02
2017-02-20T01:12:54.384Z,79.08
2017-02-20T01:13:20.863Z,79.08
2017-02-20T01:13:42.565Z,79.18
2017-02-20T01:14:04.268Z,79.23
2017-02-20T01:14:25.970Z,79.24
2017-02-20T01:14:47.660Z,79.19
2017-02-20T01:15:14.129Z,79.37
2017-02-20T01:15:35.830Z,79.30
2017-02-20T01:15:57.523Z,79.34
2017-02-20T01:16:19.219Z,79.35
2017-02-20T01:16:40.921Z,79.23
2017-02-20T01:17:02.614Z,79.24
2017-02-20T01:17:24.307Z,79.35
2017-02-20T01:17:50.782Z,79.35
2017-02-20T01:18:12.473Z,79.25
2017-02-20T01:18:38.946Z,79.36
2017-02-20T01:19:00.648Z,79.25
2017-02-20T01:19:22.338Z,79.36
2017-02-20T01:19:44.037Z,79.26
2017-02-20T01:20:05.731Z,79.41
2017-02-20T01:20:32.199Z,79.36
2017-02-20T01:20:53.890Z,79.33
2017-02-20T01:21:15.582Z,79.23
2017-02-20T01:21:42.050Z,79.28
2017-02-20T01:22:03.755Z,79.38
2017-02-20T01:22:25.449Z,79.35
2017-02-20T01:22:47.178Z,79.51
2017-02-20T01:23:08.874Z,79.38
2017-02-20T01:23:30.574Z,79.34
2017-02-20T01:23:52.281Z,79.34
2017-02-20T01:24:13.978Z,79.37
2017-02-20T01:24:35.674Z,79.46
2017-02-20T01:25:02.145Z,79.35
2017-02-20T01:25:23.836Z,79.36
2017-02-20T01:25:45.540Z,79.40
2017-02-20T01:26:07.241Z,79.51
2017-02-20T01:26:28.934Z,79.42
2017-02-20T01:27:00.184Z,79.28
2017-02-20T01:27:21.874Z,79.38
2017-02-20T01:27:43.582Z,79.53
2017-02-20T01:28:10.062Z,79.53
2017-02-20T01:28:31.760Z,79.47
2017-02-20T01:28:53.457Z,79.46
2017-02-20T01:29:15.158Z,79.38
2017-02-20T01:29:36.858Z,79.43
2017-02-20T01:29:58.543Z,79.47
2017-02-20T01:30:20.246Z,79.50
2017-02-20T01:30:41.935Z,79.39
2017-02-20T01:31:03.637Z,79.42
2017-02-20T01:31:25.339Z,79.39
2017-02-20T01:31:47.038Z,79.45
2017-02-20T01:32:13.507Z,79.47
2017-02-20T01:32:35.208Z,79.43
2017-02-20T01:32:56.894Z,79.48
2017-02-20T01:33:23.372Z,79.55
2017-02-20T01:33:45.061Z,79.60
2017-02-20T01:34:16.309Z,79.47
2017-02-20T01:34:38.005Z,79.59
2017-02-20T01:34:59.702Z,79.63
2017-02-20T01:35:21.402Z,79.58
2017-02-20T01:35:43.089Z,79.63
2017-02-20T01:36:09.563Z,79.68
2017-02-20T01:36:31.255Z,79.65
2017-02-20T01:36:52.955Z,79.70
2017-02-20T01:37:55.461Z,79.53
2017-02-20T01:38:17.157Z,79.50
2017-02-20T01:38:38.862Z,79.60
2017-02-20T01:39:00.577Z,79.58
2017-02-20T01:39:22.302Z,79.51
2017-02-20T01:39:43.999Z,79.41
2017-02-20T01:40:05.714Z,79.40
2017-02-20T01:40:27.409Z,79.38
2017-02-20T01:40:49.107Z,79.29
2017-02-20T01:41:10.805Z,79.37
2017-02-20T01:41:32.495Z,79.47
2017-02-20T01:41:54.197Z,79.48
2017-02-20T01:42:15.900Z,79.53
2017-02-20T01:42:37.599Z,79.62
2017-02-20T01:42:59.296Z,79.74
2017-02-20T01:43:20.995Z,79.60
2017-02-20T01:43:42.696Z,79.51
2017-02-20T01:44:04.394Z,79.64
2017-02-20T01:44:26.115Z,79.48
2017-02-20T01:44:52.588Z,79.45
2017-02-20T01:45:14.279Z,79.29
2017-02-20T01:45:35.979Z,79.23
2017-02-20T01:46:02.459Z,79.39
2017-02-20T01:46:24.146Z,79.56
2017-02-20T01:46:50.629Z,79.42
2017-02-20T01:47:12.324Z,79.46
2017-02-20T01:47:34.022Z,79.34
2017-02-20T01:48:00.499Z,79.46
2017-02-20T01:48:22.194Z,79.53
2017-02-20T01:48:43.898Z,79.50
2017-02-20T01:49:05.598Z,79.40
2017-02-20T01:49:27.291Z,79.52
2017-02-20T01:49:53.762Z,79.63
2017-02-20T01:50:15.456Z,79.60
2017-02-20T01:50:41.927Z,79.49
2017-02-20T01:51:03.608Z,79.53
2017-02-20T01:51:25.313Z,79.33
2017-02-20T01:51:47.013Z,79.37
2017-02-20T01:52:08.706Z,79.30
2017-02-20T01:52:30.414Z,79.38
2017-02-20T01:52:52.114Z,79.51
2017-02-20T01:53:13.811Z,79.71
2017-02-20T01:53:35.506Z,79.59
2017-02-20T01:53:57.204Z,79.55
2017-02-20T01:54:28.450Z,79.55
2017-02-20T01:54:50.172Z,79.58
2017-02-20T01:55:11.872Z,79.72
2017-02-20T01:55:38.342Z,79.94
2017-02-20T01:56:00.040Z,79.79
2017-02-20T01:56:26.520Z,79.82
2017-02-20T01:56:51.023Z,79.75
2017-02-20T01:57:12.728Z,79.81
2017-02-20T01:57:34.430Z,79.84
2017-02-20T01:57:58.643Z,79.90
2017-02-20T01:58:20.350Z,79.88
2017-02-20T01:58:42.045Z,80.04
2017-02-20T01:59:03.748Z,80.12
2017-02-20T01:59:25.451Z,80.10
2017-02-20T01:59:47.150Z,80.01
2017-02-20T02:00:08.850Z,79.97
2017-02-20T02:00:30.552Z,80.06
2017-02-20T02:00:52.247Z,80.11
2017-02-20T02:01:13.944Z,79.97
2017-02-20T02:01:35.646Z,80.05
2017-02-20T02:01:57.355Z,80.28
2017-02-20T02:02:19.057Z,80.12
2017-02-20T02:02:40.756Z,79.95
2017-02-20T02:03:02.462Z,79.95
2017-02-20T02:03:24.149Z,79.98
2017-02-20T02:03:45.851Z,80.03
2017-02-20T02:04:12.326Z,80.14
2017-02-20T02:04:34.017Z,80.11
2017-02-20T02:04:55.756Z,80.04
2017-02-20T02:05:22.238Z,79.94
2017-02-20T02:05:43.931Z,79.92
2017-02-20T02:06:05.635Z,80.00
2017-02-20T02:06:27.337Z,79.98
2017-02-20T02:06:49.029Z,80.16
2017-02-20T02:07:10.733Z,80.00
2017-02-20T02:07:37.208Z,79.99
2017-02-20T02:07:58.901Z,79.97
2017-02-20T02:08:20.593Z,79.90
2017-02-20T02:08:47.077Z,79.91
2017-02-20T02:09:08.769Z,79.90
2017-02-20T02:09:30.465Z,79.97
2017-02-20T02:09:52.168Z,79.94
2017-02-20T02:10:13.857Z,79.86
2017-02-20T02:10:35.558Z,79.78
2017-02-20T02:11:02.025Z,79.87
2017-02-20T02:11:23.720Z,79.84
2017-02-20T02:11:45.412Z,79.79
2017-02-20T02:12:07.109Z,79.80
2017-02-20T02:12:28.801Z,79.79
2017-02-20T02:12:55.281Z,79.79
2017-02-20T02:13:16.977Z,79.91
2017-02-20T02:13:38.681Z,79.93
2017-02-20T02:14:05.150Z,79.89
2017-02-20T02:14:26.844Z,79.94
2017-02-20T02:14:48.547Z,79.89
2017-02-20T02:15:15.022Z,79.94
2017-02-20T02:15:36.712Z,80.08
2017-02-20T02:16:03.202Z,80.14
2017-02-20T02:16:24.897Z,80.12
2017-02-20T02:16:46.597Z,80.09
2017-02-20T02:17:08.296Z,79.99
2017-02-20T02:17:29.986Z,80.08
2017-02-20T02:17:51.677Z,80.06
2017-02-20T02:18:13.379Z,80.08
2017-02-20T02:18:35.073Z,80.02
2017-02-20T02:19:01.568Z,80.02
2017-02-20T02:19:23.260Z,80.05
2017-02-20T02:20:21.599Z,80.12
2017-02-20T02:20:43.291Z,80.18
2017-02-20T02:21:04.982Z,80.04
2017-02-20T02:21:26.686Z,79.93
2017-02-20T02:21:48.373Z,80.16
2017-02-20T02:22:10.075Z,80.12
2017-02-20T02:22:31.779Z,80.08
2017-02-20T02:22:53.469Z,80.16
2017-02-20T02:23:15.167Z,80.31
2017-02-20T02:23:36.870Z,80.14
2017-02-20T02:23:58.565Z,80.11
2017-02-20T02:24:20.265Z,80.22
2017-02-20T02:24:41.976Z,80.25
2017-02-20T02:25:03.668Z,80.25
2017-02-20T02:25:25.387Z,80.15
2017-02-20T02:25:47.091Z,80.20
2017-02-20T02:26:08.794Z,80.16
2017-02-20T02:26:30.500Z,80.18
2017-02-20T02:26:56.999Z,80.20
2017-02-20T02:27:18.665Z,80.11
2017-02-20T02:27:40.360Z,80.19
2017-02-20T02:28:02.062Z,80.31
2017-02-20T02:28:23.749Z,80.19
2017-02-20T02:28:45.461Z,80.25
2017-02-20T02:29:07.170Z,80.21
2017-02-20T02:29:28.864Z,80.21
2017-02-20T02:29:50.562Z,80.23
2017-02-20T02:30:12.264Z,80.26
2017-02-20T02:30:43.522Z,80.19
2017-02-20T02:31:05.215Z,80.31
2017-02-20T02:31:26.917Z,80.36
2017-02-20T02:31:48.619Z,80.43
2017-02-20T02:32:10.309Z,80.46
2017-02-20T02:32:32.008Z,80.49
2017-02-20T02:32:58.485Z,80.45
2017-02-20T02:33:20.180Z,80.38
2017-02-20T02:33:41.872Z,80.53
2017-02-20T02:34:03.574Z,80.53
2017-02-20T02:34:25.269Z,80.53
2017-02-20T02:34:51.754Z,80.53
2017-02-20T02:35:13.445Z,80.49
2017-02-20T02:35:35.168Z,80.56
2017-02-20T02:35:56.895Z,80.58
2017-02-20T02:36:18.586Z,80.67
2017-02-20T02:36:40.291Z,80.65
2017-02-20T02:37:01.987Z,80.59
2017-02-20T02:37:23.673Z,80.59
2017-02-20T02:37:50.152Z,80.59
2017-02-20T02:38:11.840Z,80.58
2017-02-20T02:38:33.536Z,80.70
2017-02-20T02:38:55.234Z,80.67
2017-02-20T02:39:16.939Z,80.60
2017-02-20T02:39:38.627Z,80.63
2017-02-20T02:40:00.337Z,80.52
2017-02-20T02:40:22.037Z,80.55
2017-02-20T02:40:43.729Z,80.65
2017-02-20T02:41:10.199Z,80.73
2017-02-20T02:41:31.894Z,80.75
2017-02-20T02:41:58.363Z,80.75
2017-02-20T02:42:20.058Z,80.62
2017-02-20T02:42:41.752Z,80.57
2017-02-20T02:43:03.449Z,80.67
2017-02-20T02:43:29.923Z,80.67
2017-02-20T02:43:51.617Z,80.66
2017-02-20T02:44:18.085Z,80.70
2017-02-20T02:44:39.776Z,80.58
2017-02-20T02:45:01.463Z,80.60
2017-02-20T02:45:23.163Z,80.67
2017-02-20T02:45:44.864Z,80.62
2017-02-20T02:46:06.603Z,80.70
2017-02-20T02:46:28.299Z,80.61
2017-02-20T02:46:49.989Z,80.62
2017-02-20T02:47:11.685Z,80.67
2017-02-20T02:47:33.391Z,80.76
2017-02-20T02:47:55.083Z,80.73
2017-02-20T02:48:16.783Z,80.76
2017-02-20T02:48:38.488Z,80.79
2017-02-20T02:49:00.181Z,80.85
2017-02-20T02:49:21.875Z,80.87
2017-02-20T02:49:43.575Z,80.95
2017-02-20T02:50:10.059Z,80.97
2017-02-20T02:50:31.759Z,80.92
2017-02-20T02:50:53.458Z,80.94
2017-02-20T02:51:15.190Z,80.86
2017-02-20T02:51:36.885Z,80.85
2017-02-20T02:51:58.610Z,81.08
2017-02-20T02:52:25.083Z,80.81
2017-02-20T02:52:46.778Z,80.79
2017-02-20T02:53:08.479Z,80.69
2017-02-20T02:53:30.179Z,80.67
2017-02-20T02:53:51.885Z,80.71
2017-02-20T02:54:13.584Z,80.70
2017-02-20T02:54:35.293Z,80.71
2017-02-20T02:54:56.989Z,80.84
2017-02-20T02:55:18.697Z,80.83
2017-02-20T02:55:40.395Z,80.96
2017-02-20T02:56:02.092Z,80.89
2017-02-20T02:56:23.816Z,80.92
2017-02-20T02:56:45.516Z,80.94
2017-02-20T02:57:07.210Z,80.95
2017-02-20T02:57:33.684Z,80.92
2017-02-20T02:57:55.384Z,80.94
2017-02-20T02:58:17.083Z,81.01
2017-02-20T02:58:38.789Z,80.98
2017-02-20T02:59:00.488Z,80.85
2017-02-20T02:59:22.183Z,80.89
2017-02-20T02:59:43.880Z,81.06
2017-02-20T03:00:10.363Z,81.12
2017-02-20T03:00:32.062Z,81.21
2017-02-20T03:00:53.762Z,81.07
2017-02-20T03:01:15.468Z,81.06
2017-02-20T03:01:37.165Z,81.06
2017-02-20T03:01:58.868Z,81.05
2017-02-20T03:02:20.569Z,81.06
2017-02-20T03:02:42.286Z,81.12
2017-02-20T03:03:03.992Z,81.17
2017-02-20T03:03:25.723Z,81.21
2017-02-20T03:03:47.420Z,81.16
2017-02-20T03:04:13.900Z,81.23
2017-02-20T03:04:35.590Z,81.19
2017-02-20T03:04:57.292Z,81.17
2017-02-20T03:05:23.773Z,81.17
2017-02-20T03:05:45.468Z,81.19
2017-02-20T03:06:07.166Z,81.19
2017-02-20T03:06:33.644Z,81.21
2017-02-20T03:06:55.343Z,81.24
2017-02-20T03:07:17.035Z,81.15
2017-02-20T03:07:38.738Z,81.26
2017-02-20T03:08:00.445Z,81.26
2017-02-20T03:08:22.134Z,81.26
2017-02-20T03:08:43.834Z,81.15
2017-02-20T03:09:05.525Z,81.22
2017-02-20T03:09:27.304Z,81.24
2017-02-20T03:09:48.927Z,81.41
2017-02-20T03:10:10.616Z,81.39
2017-02-20T03:10:32.310Z,81.26
2017-02-20T03:10:54.011Z,81.28
2017-02-20T03:11:15.700Z,81.41
2017-02-20T03:11:46.965Z,81.37
2017-02-20T03:12:08.653Z,81.28
2017-02-20T03:12:30.358Z,81.16
2017-02-20T03:12:52.079Z,81.19
2017-02-20T03:13:13.767Z,81.31
2017-02-20T03:13:35.469Z,81.27
2017-02-20T03:13:57.164Z,81.27
2017-02-20T03:14:18.861Z,81.38
2017-02-20T03:14:40.552Z,81.22
2017-02-20T03:15:02.251Z,81.29
2017-02-20T03:15:23.949Z,81.32
2017-02-20T03:15:50.431Z,81.26
2017-02-20T03:16:12.122Z,81.18
2017-02-20T03:16:33.831Z,81.23
2017-02-20T03:16:55.533Z,81.23
2017-02-20T03:17:17.234Z,81.30
2017-02-20T03:17:38.929Z,81.39
2017-02-20T03:18:00.662Z,81.35
2017-02-20T03:18:22.362Z,81.43
2017-02-20T03:18:44.060Z,81.45
2017-02-20T03:19:10.537Z,81.44
2017-02-20T03:19:32.308Z,81.43
2017-02-20T03:19:54.002Z,81.42
2017-02-20T03:20:15.694Z,81.55
2017-02-20T03:20:37.387Z,81.47
2017-02-20T03:20:59.077Z,81.46
2017-02-20T03:21:20.783Z,81.52
2017-02-20T03:21:52.038Z,81.56
2017-02-20T03:22:13.731Z,81.46
2017-02-20T03:22:35.429Z,81.53
2017-02-20T03:23:01.949Z,81.55
2017-02-20T03:23:23.643Z,81.51
2017-02-20T03:23:45.345Z,81.49
2017-02-20T03:24:07.046Z,81.52
2017-02-20T03:24:28.748Z,81.52
2017-02-20T03:24:50.448Z,81.55
2017-02-20T03:25:12.157Z,81.65
2017-02-20T03:25:33.929Z,81.47
2017-02-20T03:25:55.627Z,81.63
2017-02-20T03:26:17.331Z,81.59
2017-02-20T03:26:39.029Z,81.64
2017-02-20T03:27:05.495Z,81.53
2017-02-20T03:27:27.189Z,81.48
2017-02-20T03:27:48.881Z,81.54
2017-02-20T03:28:10.616Z,81.51
2017-02-20T03:28:32.319Z,81.45
2017-02-20T03:28:54.012Z,81.43
2017-02-20T03:29:15.714Z,81.39
2017-02-20T03:29:42.192Z,81.38
2017-02-20T03:30:03.892Z,81.33
2017-02-20T03:30:25.599Z,81.33
2017-02-20T03:30:52.072Z,81.25
2017-02-20T03:31:13.769Z,81.25
2017-02-20T03:31:35.477Z,81.25
2017-02-20T03:32:01.958Z,81.38
2017-02-20T03:32:23.655Z,81.42
2017-02-20T03:32:45.353Z,81.38
2017-02-20T03:33:07.050Z,81.37
2017-02-20T03:33:28.748Z,81.31
2017-02-20T03:33:50.449Z,81.38
2017-02-20T03:34:12.145Z,81.30
2017-02-20T03:34:33.866Z,81.32
2017-02-20T03:35:00.339Z,81.40
2017-02-20T03:35:22.036Z,81.40
2017-02-20T03:35:43.737Z,81.42
2017-02-20T03:36:05.443Z,81.34
2017-02-20T03:36:27.136Z,81.31
2017-02-20T03:36:48.841Z,81.27
2017-02-20T03:37:10.566Z,81.31
2017-02-20T03:37:32.239Z,81.38
2017-02-20T03:37:53.935Z,81.27
2017-02-20T03:38:15.632Z,81.26
2017-02-20T03:38:37.334Z,81.33
2017-02-20T03:38:59.026Z,81.35
2017-02-20T03:39:25.499Z,81.27
2017-02-20T03:39:47.216Z,81.36
2017-02-20T03:40:08.918Z,81.21
2017-02-20T03:40:30.621Z,81.22
2017-02-20T03:40:52.313Z,81.26
2017-02-20T03:41:14.022Z,81.27
2017-02-20T03:41:40.499Z,81.28
2017-02-20T03:42:02.191Z,81.30
2017-02-20T03:42:23.891Z,81.28
2017-02-20T03:42:45.590Z,81.28
2017-02-20T03:43:07.278Z,81.21
2017-02-20T03:43:28.981Z,81.17
2017-02-20T03:43:50.681Z,81.21
2017-02-20T03:44:12.373Z,81.28
2017-02-20T03:44:34.066Z,81.26
2017-02-20T03:44:55.789Z,81.33
2017-02-20T03:45:17.481Z,81.29
2017-02-20T03:45:39.205Z,81.26
2017-02-20T03:46:00.932Z,81.23
2017-02-20T03:46:22.607Z,81.17
2017-02-20T03:46:44.302Z,81.08
2017-02-20T03:47:05.996Z,81.06
2017-02-20T03:48:09.145Z,81.21
2017-02-20T03:48:30.840Z,81.23
2017-02-20T03:48:52.551Z,81.23
2017-02-20T03:49:14.256Z,81.18
2017-02-20T03:49:35.952Z,81.24
2017-02-20T03:49:57.648Z,81.20
2017-02-20T03:50:19.353Z,81.21
2017-02-20T03:50:41.069Z,81.22
2017-02-20T03:51:07.554Z,81.17
2017-02-20T03:51:29.234Z,81.15
2017-02-20T03:51:50.940Z,81.06
2017-02-20T03:52:12.672Z,81.02
2017-02-20T03:52:34.370Z,81.07
2017-02-20T03:52:56.073Z,81.12
2017-02-20T03:53:17.773Z,81.12
2017-02-20T03:53:39.464Z,81.14
2017-02-20T03:54:01.158Z,81.27
2017-02-20T03:54:32.415Z,81.12
2017-02-20T03:54:54.107Z,81.11
2017-02-20T03:55:15.812Z,81.15
2017-02-20T03:55:42.297Z,81.14
2017-02-20T03:56:04.026Z,81.01
2017-02-20T03:56:25.724Z,81.23
2017-02-20T03:56:47.426Z,81.26
2017-02-20T03:57:09.122Z,81.31
2017-02-20T03:57:30.819Z,81.26
2017-02-20T03:57:57.295Z,81.21
2017-02-20T03:58:18.994Z,81.16
2017-02-20T03:58:40.687Z,81.21
2017-02-20T03:59:02.390Z,81.34
2017-02-20T03:59:24.077Z,81.22
2017-02-20T03:59:45.775Z,81.23
2017-02-20T04:00:07.474Z,81.19
2017-02-20T04:00:29.171Z,81.15
2017-02-20T04:01:27.513Z,81.19
2017-02-20T04:01:49.207Z,81.14
2017-02-20T04:02:10.911Z,81.16
2017-02-20T04:02:32.617Z,81.18
2017-02-20T04:02:54.318Z,81.24
2017-02-20T04:03:25.571Z,81.26
2017-02-20T04:03:47.264Z,81.34
2017-02-20T04:04:13.741Z,81.33
2017-02-20T04:04:35.433Z,81.29
2017-02-20T04:04:57.129Z,81.29
2017-02-20T04:05:18.833Z,81.34
2017-02-20T04:05:40.524Z,81.36
2017-02-20T04:06:02.224Z,81.23
2017-02-20T04:06:23.942Z,81.20
2017-02-20T04:06:45.634Z,81.32
2017-02-20T04:07:12.106Z,81.20
2017-02-20T04:07:33.797Z,81.14
2017-02-20T04:07:55.491Z,81.17
2017-02-20T04:08:17.196Z,81.13
2017-02-20T04:08:38.889Z,81.12
2017-02-20T04:09:00.576Z,81.16
2017-02-20T04:09:22.282Z,81.20
2017-02-20T04:09:48.758Z,81.34
2017-02-20T04:10:10.449Z,81.27
2017-02-20T04:10:32.140Z,81.18
2017-02-20T04:10:58.616Z,81.13
2017-02-20T04:11:20.308Z,81.23
2017-02-20T04:11:42.017Z,81.20
2017-02-20T04:12:03.745Z,80.93
2017-02-20T04:12:25.411Z,80.81
2017-02-20T04:12:51.891Z,80.90
2017-02-20T04:13:13.589Z,80.83
2017-02-20T04:13:40.063Z,80.83
2017-02-20T04:14:01.756Z,80.96
2017-02-20T04:14:23.452Z,80.95
2017-02-20T04:14:45.152Z,80.90
2017-02-20T04:15:06.845Z,80.94
2017-02-20T04:15:28.547Z,80.97
2017-02-20T04:15:50.238Z,80.91
2017-02-20T04:16:11.940Z,80.87
2017-02-20T04:16:33.632Z,80.86
2017-02-20T04:16:55.369Z,80.93
2017-02-20T04:17:17.060Z,80.93
2017-02-20T04:17:38.753Z,80.88
2017-02-20T04:18:05.232Z,81.25
2017-02-20T04:18:26.928Z,80.96
2017-02-20T04:18:48.625Z,80.90
2017-02-20T04:19:10.327Z,80.95
2017-02-20T04:19:32.024Z,80.99
2017-02-20T04:19:53.719Z,80.88
2017-02-20T04:20:20.199Z,80.96
2017-02-20T04:20:41.920Z,80.91
2017-02-20T04:21:03.596Z,80.77
2017-02-20T04:21:25.289Z,80.80
2017-02-20T04:21:46.979Z,80.92
2017-02-20T04:22:08.714Z,80.87
2017-02-20T04:22:30.416Z,80.81
2017-02-20T04:22:52.106Z,80.77
2017-02-20T04:23:13.808Z,80.81
2017-02-20T04:23:35.502Z,80.88
2017-02-20T04:23:57.196Z,80.97
2017-02-20T04:24:18.899Z,80.90
2017-02-20T04:24:45.370Z,80.81
2017-02-20T04:25:07.056Z,80.76
2017-02-20T04:25:28.745Z,80.64
2017-02-20T04:25:50.451Z,80.72
2017-02-20T04:26:12.147Z,80.79
2017-02-20T04:26:33.850Z,80.69
2017-02-20T04:27:00.319Z,80.62
2017-02-20T04:27:22.041Z,80.55
2017-02-20T04:27:48.518Z,80.54
2017-02-20T04:28:10.212Z,80.63
2017-02-20T04:28:36.690Z,80.65
2017-02-20T04:28:58.390Z,80.59
2017-02-20T04:29:20.095Z,80.78
2017-02-20T04:29:46.564Z,80.66
2017-02-20T04:30:08.258Z,80.69
2017-02-20T04:30:29.974Z,80.51
2017-02-20T04:30:51.670Z,80.60
2017-02-20T04:31:13.366Z,80.53
2017-02-20T04:31:35.066Z,80.48
2017-02-20T04:32:01.533Z,80.47
2017-02-20T04:32:23.254Z,80.50
2017-02-20T04:32:44.948Z,80.50
2017-02-20T04:33:06.652Z,80.51
2017-02-20T04:33:28.349Z,80.59
2017-02-20T04:33:50.049Z,80.54
2017-02-20T04:34:11.754Z,80.51
2017-02-20T04:34:33.446Z,80.38
2017-02-20T04:34:59.920Z,80.39
2017-02-20T04:35:21.616Z,80.33
2017-02-20T04:35:48.093Z,80.45
2017-02-20T04:36:09.785Z,80.48
2017-02-20T04:36:41.044Z,80.40
2017-02-20T04:37:02.731Z,80.44
2017-02-20T04:37:24.458Z,80.60
2017-02-20T04:37:46.157Z,80.42
2017-02-20T04:38:34.349Z,80.44
2017-02-20T04:38:56.043Z,80.32
2017-02-20T04:39:17.728Z,80.26
2017-02-20T04:39:39.430Z,80.37
2017-02-20T04:40:01.126Z,80.26
2017-02-20T04:40:27.604Z,80.17
2017-02-20T04:40:49.299Z,80.32
2017-02-20T04:41:10.997Z,80.34
2017-02-20T04:41:37.468Z,80.39
2017-02-20T04:41:59.162Z,80.35
2017-02-20T04:42:20.870Z,80.36
2017-02-20T04:42:47.340Z,80.35
2017-02-20T04:43:09.032Z,80.44
2017-02-20T04:43:35.501Z,80.47
2017-02-20T04:43:57.194Z,80.31
2017-02-20T04:44:23.669Z,80.41
2017-02-20T04:44:45.360Z,80.34
2017-02-20T04:45:11.839Z,80.29
2017-02-20T04:45:33.537Z,80.19
2017-02-20T04:45:55.241Z,80.14
2017-02-20T04:46:16.941Z,80.19
2017-02-20T04:46:38.633Z,80.11
2017-02-20T04:47:00.331Z,80.08
2017-02-20T04:47:26.812Z,80.17
2017-02-20T04:47:48.537Z,80.23
2017-02-20T04:48:10.242Z,80.09
2017-02-20T04:48:31.938Z,80.12
2017-02-20T04:48:53.629Z,80.14
2017-02-20T04:49:15.318Z,80.23
2017-02-20T04:49:37.021Z,80.23
2017-02-20T04:49:58.711Z,80.32
2017-02-20T04:50:20.421Z,80.28
2017-02-20T04:50:42.119Z,80.26
2017-02-20T04:51:03.807Z,80.29
2017-02-20T04:51:25.505Z,80.22
2017-02-20T04:51:47.199Z,80.29
2017-02-20T04:52:08.922Z,80.31
2017-02-20T04:52:35.385Z,80.20
2017-02-20T04:52:57.091Z,80.19
2017-02-20T04:53:18.784Z,80.14
2017-02-20T04:53:40.487Z,80.28